This is the latest recevied weather packets stored in our database for station/object KC5TIL-3. If no packets are shown the sender has not sent any weather packets the latest 10 day(s).
| Time | Temp. | Humidity | Pressure | Rain* | Wind** | Luminosity | Snow |
|---|---|---|---|---|---|---|---|
| 1787601361 | 40.56° C | 10% | 1009.8 hPa | 0 mm | 3.13 m/s, 205° | - | - |
| 1787601063 | 41.11° C | 10% | 1009.8 hPa | 0 mm | 1.79 m/s, 53° | - | - |
| 1787600765 | 40.56° C | 10% | 1010.8 hPa | 0 mm | 4.47 m/s, 212° | - | - |
| 1787600454 | 40.56° C | 10% | 1010.8 hPa | 0 mm | 2.24 m/s, 153° | - | - |
| 1787600156 | 40° C | 10% | 1010.8 hPa | 0 mm | 4.02 m/s, 144° | - | - |
| 1787599857 | 39.44° C | 10% | 1010.8 hPa | 0 mm | 4.92 m/s, 202° | - | - |
| 1787599556 | 40° C | 10% | 1010.8 hPa | 0 mm | 4.02 m/s, 210° | - | - |
| 1787599258 | 40.56° C | 10% | 1010.8 hPa | 0 mm | 3.58 m/s, 110° | - | - |
| 1787598960 | 40° C | 10% | 1010.8 hPa | 0 mm | 2.68 m/s, 191° | - | - |
| 1787598658 | 40° C | 10% | 1010.8 hPa | 0 mm | 2.68 m/s, 223° | - | - |
| 1787598360 | 38.89° C | 10% | 1010.8 hPa | 0 mm | 4.92 m/s, 186° | - | - |
| 1787598062 | 40° C | 10% | 1010.8 hPa | 0 mm | 4.47 m/s, 192° | - | - |
| 1787597761 | 40° C | 10% | 1010.8 hPa | 0 mm | 1.79 m/s, 171° | - | - |
| 1787597463 | 39.44° C | 10% | 1010.8 hPa | 0 mm | 1.79 m/s, 147° | - | - |
| 1787597164 | 39.44° C | 10% | 1010.8 hPa | 0 mm | 3.58 m/s, 215° | - | - |
| 1787596863 | 39.44° C | 10% | 1010.8 hPa | 0 mm | 2.68 m/s, 132° | - | - |
| 1787596565 | 38.89° C | 10% | 1010.8 hPa | 0 mm | 2.68 m/s, 205° | - | - |
| 1787596267 | 39.44° C | 10% | 1010.8 hPa | 0 mm | 2.68 m/s, 165° | - | - |
| 1787595965 | 38.89° C | 10% | 1010.8 hPa | 0 mm | 3.58 m/s, 221° | - | - |
| 1787595667 | 39.44° C | 10% | 1010.8 hPa | 0 mm | 1.79 m/s, 172° | - | - |
| 1787595369 | 38.89° C | 10% | 1011.8 hPa | 0 mm | 3.13 m/s, 198° | - | - |
| 1787595068 | 38.89° C | 10% | 1011.8 hPa | 0 mm | 4.02 m/s, 186° | - | - |
| 1787594769 | 38.33° C | 10% | 1011.8 hPa | 0 mm | 3.58 m/s, 216° | - | - |
| 1787594471 | 38.33° C | 10% | 1011.8 hPa | 0 mm | 4.92 m/s, 174° | - | - |
| 1787594170 | 38.33° C | 10% | 1011.8 hPa | 0 mm | 5.36 m/s, 225° | - | - |
* Rain latest hour (hover to see other rain measurements)
** Current wind speed in m/s (hover to see current wind gust speed)